createdAt,value
2022-12-08T00:00:12.180Z,99977.50
2022-12-08T00:02:42.682Z,99966.81
2022-12-08T00:05:28.866Z,99947.06
2022-12-08T00:08:14.916Z,99960.47
2022-12-08T00:10:49.592Z,99957.72
2022-12-08T00:13:18.611Z,99961.66
2022-12-08T00:15:48.435Z,99946.75
2022-12-08T00:18:17.126Z,99952.47
2022-12-08T00:20:45.495Z,99966.94
2022-12-08T00:23:14.036Z,99957.31
2022-12-08T00:25:42.555Z,99945.50
2022-12-08T00:28:11.031Z,99950.19
2022-12-08T00:30:41.404Z,99937.59
2022-12-08T00:33:11.691Z,99918.72
2022-12-08T00:35:43.303Z,99937.53
2022-12-08T00:38:11.930Z,99927.66
2022-12-08T00:40:45.338Z,99930.88
2022-12-08T00:43:14.158Z,99929.84
2022-12-08T00:45:42.674Z,99931.00
2022-12-08T00:48:12.662Z,99920.41
2022-12-08T00:50:41.123Z,99915.63
2022-12-08T00:53:09.278Z,99923.06
2022-12-08T00:55:37.699Z,99926.34
2022-12-08T00:58:06.077Z,99912.22
2022-12-08T01:00:34.568Z,99919.19
2022-12-08T01:03:03.169Z,99916.75
2022-12-08T01:05:33.165Z,99918.25
2022-12-08T01:08:01.717Z,99908.56
2022-12-08T01:10:30.236Z,99915.69
2022-12-08T01:12:59.648Z,99915.00
2022-12-08T01:15:28.111Z,99915.53
2022-12-08T01:17:57.049Z,99881.31
2022-12-08T01:20:25.598Z,99902.00
2022-12-08T01:22:55.497Z,99907.13
2022-12-08T01:25:23.911Z,99906.75
2022-12-08T01:27:53.378Z,99907.19
2022-12-08T01:30:22.186Z,99894.63
2022-12-08T01:32:50.667Z,99901.63
2022-12-08T01:35:19.287Z,99899.03
2022-12-08T01:37:47.655Z,99889.84
2022-12-08T01:40:18.063Z,99903.63
2022-12-08T01:42:46.585Z,99899.34
2022-12-08T01:45:22.607Z,99902.94
2022-12-08T01:47:55.873Z,99907.78
2022-12-08T01:50:24.945Z,99888.47
2022-12-08T01:52:58.818Z,99896.88
2022-12-08T01:55:34.149Z,99877.78
2022-12-08T01:58:07.273Z,99891.69
2022-12-08T02:00:35.763Z,99874.50
2022-12-08T02:03:08.334Z,99890.94
2022-12-08T02:05:40.125Z,99893.31
2022-12-08T02:08:12.248Z,99901.91
2022-12-08T02:10:43.753Z,99890.47
2022-12-08T02:13:16.300Z,99891.44
2022-12-08T02:15:59.204Z,99887.59
2022-12-08T02:18:41.241Z,99888.78
2022-12-08T02:21:15.172Z,99890.00
2022-12-08T02:23:55.155Z,99882.09
2022-12-08T02:26:57.012Z,99887.75
2022-12-08T02:29:43.854Z,99865.25
2022-12-08T02:32:42.414Z,99884.63
2022-12-08T02:35:15.849Z,99877.63
2022-12-08T02:37:51.454Z,99892.50
2022-12-08T02:40:27.305Z,99884.44
2022-12-08T02:42:59.874Z,99879.88
2022-12-08T02:45:33.189Z,99876.16
2022-12-08T02:48:10.073Z,99865.03
2022-12-08T02:50:39.950Z,99867.28
2022-12-08T02:55:48.333Z,99877.66
2022-12-08T02:58:40.429Z,99863.69
2022-12-08T03:01:34.842Z,99859.66
2022-12-08T03:04:09.717Z,99860.59
2022-12-08T03:06:46.984Z,99859.41
2022-12-08T03:09:21.003Z,99849.91
2022-12-08T03:11:55.004Z,99834.69
2022-12-08T03:14:24.260Z,99843.38
2022-12-08T03:16:56.707Z,99823.47
2022-12-08T03:19:29.230Z,99836.69
2022-12-08T03:22:06.583Z,99832.44
2022-12-08T03:24:38.308Z,99839.63
2022-12-08T03:27:09.598Z,99812.69
2022-12-08T03:29:38.207Z,99825.44
2022-12-08T03:32:12.858Z,99832.84
2022-12-08T03:34:43.693Z,99829.47
2022-12-08T03:37:14.422Z,99836.28
2022-12-08T03:39:43.249Z,99839.81
2022-12-08T03:42:11.693Z,99833.03
2022-12-08T03:44:40.361Z,99836.59
2022-12-08T03:47:08.785Z,99827.69
2022-12-08T03:49:37.236Z,99826.97
2022-12-08T03:52:05.883Z,99821.13
2022-12-08T03:54:35.688Z,99822.88
2022-12-08T03:57:06.773Z,99826.88
2022-12-08T03:59:35.284Z,99810.31
2022-12-08T04:02:03.764Z,99820.75
2022-12-08T04:04:32.347Z,99818.34
2022-12-08T04:07:00.761Z,99814.41
2022-12-08T04:09:29.324Z,99802.50
2022-12-08T04:11:59.110Z,99811.38
2022-12-08T04:14:32.629Z,99808.00
2022-12-08T04:17:01.367Z,99807.47
2022-12-08T04:19:29.880Z,99798.25
2022-12-08T04:21:58.354Z,99799.38
2022-12-08T04:24:27.201Z,99802.16
2022-12-08T04:26:55.676Z,99816.31
2022-12-08T04:29:25.584Z,99804.34
2022-12-08T04:31:54.096Z,99802.25
2022-12-08T04:34:22.550Z,99818.88
2022-12-08T04:36:51.042Z,99806.31
2022-12-08T04:39:19.489Z,99809.56
2022-12-08T04:41:47.902Z,99798.75
2022-12-08T04:44:16.341Z,99812.97
2022-12-08T04:46:46.308Z,99818.31
2022-12-08T04:49:14.786Z,99786.59
2022-12-08T04:51:43.195Z,99794.31
2022-12-08T04:54:11.743Z,99808.13
2022-12-08T04:56:40.153Z,99814.28
2022-12-08T04:59:09.280Z,99803.47
2022-12-08T05:01:37.738Z,99813.31
2022-12-08T05:04:07.705Z,99806.88
2022-12-08T05:06:36.119Z,99811.75
2022-12-08T05:09:04.907Z,99814.03
2022-12-08T05:11:33.372Z,99801.66
2022-12-08T05:14:01.841Z,99791.75
2022-12-08T05:16:30.368Z,99795.19
2022-12-08T05:18:58.754Z,99802.53
2022-12-08T05:21:28.644Z,99797.66
2022-12-08T05:23:57.132Z,99797.22
2022-12-08T05:26:25.533Z,99797.31
2022-12-08T05:28:54.257Z,99803.88
2022-12-08T05:31:22.788Z,99800.34
2022-12-08T05:33:52.685Z,99795.75
2022-12-08T05:36:21.888Z,99795.44
2022-12-08T05:38:51.745Z,99793.19
2022-12-08T05:41:22.154Z,99800.47
2022-12-08T05:43:51.034Z,99799.81
2022-12-08T05:46:19.879Z,99800.97
2022-12-08T05:48:48.401Z,99800.84
2022-12-08T05:51:19.874Z,99795.81
2022-12-08T05:53:49.737Z,99775.22
2022-12-08T05:56:20.357Z,99784.91
2022-12-08T05:58:49.135Z,99788.22
2022-12-08T06:01:22.490Z,99777.94
2022-12-08T06:03:51.390Z,99780.94
2022-12-08T06:06:20.122Z,99791.19
2022-12-08T06:08:48.759Z,99781.25
2022-12-08T06:11:23.580Z,99778.44
2022-12-08T06:13:52.507Z,99759.78
2022-12-08T06:16:23.965Z,99780.56
2022-12-08T06:18:52.507Z,99786.91
2022-12-08T06:21:21.331Z,99791.28
2022-12-08T06:23:53.525Z,99779.81
2022-12-08T06:26:25.207Z,99788.34
2022-12-08T06:28:54.129Z,99777.34
2022-12-08T06:31:24.274Z,99780.81
2022-12-08T06:33:53.892Z,99794.84
2022-12-08T06:36:25.353Z,99807.53
2022-12-08T06:38:54.286Z,99800.31
2022-12-08T06:41:24.097Z,99792.22
2022-12-08T06:43:52.650Z,99786.34
2022-12-08T06:46:21.782Z,99780.94
2022-12-08T06:48:53.752Z,99783.06
2022-12-08T06:51:24.777Z,99788.53
2022-12-08T06:53:53.330Z,99786.72
2022-12-08T06:56:28.037Z,99777.47
2022-12-08T06:58:58.414Z,99780.25
2022-12-08T07:01:26.967Z,99787.81
2022-12-08T07:03:55.323Z,99784.44
2022-12-08T07:06:25.534Z,99772.88
2022-12-08T07:08:54.052Z,99761.28
2022-12-08T07:11:23.921Z,99765.59
2022-12-08T07:13:52.639Z,99770.63
2022-12-08T07:16:21.085Z,99767.91
2022-12-08T07:18:49.642Z,99770.28
2022-12-08T07:21:19.151Z,99770.88
2022-12-08T07:23:54.348Z,99759.41
2022-12-08T07:26:27.035Z,99772.31
2022-12-08T07:28:55.688Z,99764.78
2022-12-08T07:31:26.219Z,99772.56
2022-12-08T07:33:55.203Z,99775.25
2022-12-08T07:36:24.686Z,99761.94
2022-12-08T07:38:54.380Z,99758.69
2022-12-08T07:41:25.145Z,99757.00
2022-12-08T07:43:55.413Z,99751.38
2022-12-08T07:46:25.338Z,99759.22
2022-12-08T07:48:54.702Z,99767.06
2022-12-08T07:51:23.176Z,99758.97
2022-12-08T07:53:54.701Z,99768.41
2022-12-08T07:56:24.433Z,99774.16
2022-12-08T07:58:54.501Z,99766.09
2022-12-08T08:01:25.536Z,99765.47
2022-12-08T08:03:55.080Z,99761.22
2022-12-08T08:06:23.952Z,99751.00
2022-12-08T08:08:52.356Z,99743.84
2022-12-08T08:11:21.886Z,99753.38
2022-12-08T08:13:50.863Z,99751.56
2022-12-08T08:16:21.596Z,99747.19
2022-12-08T08:18:50.966Z,99734.97
2022-12-08T08:24:09.578Z,99742.03
2022-12-08T08:26:38.215Z,99723.25
2022-12-08T08:29:06.895Z,99745.84
2022-12-08T08:31:36.896Z,99730.28
2022-12-08T08:34:06.818Z,99732.00
2022-12-08T08:37:11.170Z,99720.66
2022-12-08T08:39:39.872Z,99733.16
2022-12-08T08:42:08.300Z,99716.44
2022-12-08T08:44:37.551Z,99740.91
2022-12-08T08:47:07.542Z,99738.97
2022-12-08T08:49:36.244Z,99737.28
2022-12-08T08:52:05.250Z,99747.91
2022-12-08T08:54:34.307Z,99738.75
2022-12-08T08:57:03.053Z,99732.09
2022-12-08T08:59:33.363Z,99725.34
2022-12-08T09:02:02.074Z,99732.31
2022-12-08T09:04:32.200Z,99727.34
2022-12-08T09:07:00.692Z,99723.06
2022-12-08T09:09:28.743Z,99738.22
2022-12-08T09:11:58.581Z,99735.00
2022-12-08T09:14:27.997Z,99738.88
2022-12-08T09:16:56.498Z,99730.88
2022-12-08T09:19:24.975Z,99727.78
2022-12-08T09:21:57.178Z,99729.72
2022-12-08T09:24:25.729Z,99740.25
2022-12-08T09:26:54.114Z,99743.41
2022-12-08T09:29:22.616Z,99735.31
2022-12-08T09:31:50.824Z,99726.84
2022-12-08T09:34:18.970Z,99730.88
2022-12-08T09:36:47.973Z,99735.44
2022-12-08T09:39:17.976Z,99723.72
2022-12-08T09:41:50.198Z,99720.91
2022-12-08T09:44:39.442Z,99725.25
2022-12-08T09:47:19.094Z,99727.34
2022-12-08T09:49:57.412Z,99700.91
2022-12-08T09:52:27.746Z,99702.88
2022-12-08T09:55:00.381Z,99706.09
2022-12-08T09:57:30.460Z,99709.09
2022-12-08T10:00:02.730Z,99698.06
2022-12-08T10:02:34.257Z,99691.44
2022-12-08T10:05:02.940Z,99683.38
2022-12-08T10:07:44.724Z,99679.91
2022-12-08T10:10:27.801Z,99671.41
2022-12-08T10:13:04.969Z,99679.63
2022-12-08T10:15:48.400Z,99686.09
2022-12-08T10:18:19.585Z,99687.97
2022-12-08T10:20:49.597Z,99690.25
2022-12-08T10:23:28.956Z,99681.88
2022-12-08T10:26:03.556Z,99684.34
2022-12-08T10:28:34.339Z,99694.25
2022-12-08T10:31:03.057Z,99698.75
2022-12-08T10:33:34.731Z,99706.72
2022-12-08T10:36:04.945Z,99700.97
2022-12-08T10:38:34.680Z,99695.59
2022-12-08T10:41:08.358Z,99698.44
2022-12-08T10:43:39.794Z,99703.47
2022-12-08T10:46:17.513Z,99693.09
2022-12-08T10:48:52.232Z,99695.75
2022-12-08T10:51:25.937Z,99706.53
2022-12-08T10:53:54.506Z,99703.06
2022-12-08T10:56:27.090Z,99707.31
2022-12-08T10:59:12.245Z,99698.09
2022-12-08T11:01:42.563Z,99698.06
2022-12-08T11:04:16.814Z,99704.38
2022-12-08T11:06:45.880Z,99707.81
2022-12-08T11:09:27.434Z,99706.50
2022-12-08T11:11:59.923Z,99714.63
2022-12-08T11:14:31.306Z,99717.22
2022-12-08T11:17:07.221Z,99710.63
2022-12-08T11:19:39.108Z,99704.31
2022-12-08T11:22:23.208Z,99708.41
2022-12-08T11:25:00.153Z,99711.59
2022-12-08T11:27:30.958Z,99706.69
2022-12-08T11:29:59.650Z,99704.84
2022-12-08T11:32:28.072Z,99691.56
2022-12-08T11:35:02.797Z,99697.44
2022-12-08T11:37:41.607Z,99688.59
2022-12-08T11:40:18.841Z,99685.69
2022-12-08T11:42:57.651Z,99690.78
2022-12-08T11:45:31.264Z,99686.41
2022-12-08T11:48:08.656Z,99680.16
2022-12-08T11:50:44.216Z,99678.75
2022-12-08T11:53:20.689Z,99675.19
2022-12-08T11:55:56.419Z,99680.94
2022-12-08T11:58:33.566Z,99678.59
2022-12-08T12:01:02.734Z,99677.97
2022-12-08T12:03:37.492Z,99683.91
2022-12-08T12:06:53.374Z,99685.78
2022-12-08T12:09:30.462Z,99685.06
2022-12-08T12:12:16.765Z,99690.41
2022-12-08T12:15:20.667Z,99684.88
2022-12-08T12:17:54.380Z,99676.41
2022-12-08T12:20:27.298Z,99676.34
2022-12-08T12:23:02.340Z,99681.13
2022-12-08T12:25:31.205Z,99679.88
2022-12-08T12:28:03.952Z,99683.19
2022-12-08T12:30:55.191Z,99696.63
2022-12-08T12:33:26.387Z,99690.63
2022-12-08T12:35:58.532Z,99686.84
2022-12-08T12:38:50.433Z,99692.47
2022-12-08T12:41:25.716Z,99704.94
2022-12-08T12:44:25.809Z,99703.59
2022-12-08T12:46:58.066Z,99699.94
2022-12-08T12:49:53.840Z,99701.19
2022-12-08T12:52:49.466Z,99692.41
2022-12-08T12:55:23.720Z,99714.78
2022-12-08T12:57:54.322Z,99714.78
2022-12-08T13:00:25.456Z,99714.53
2022-12-08T13:02:55.608Z,99708.47
2022-12-08T13:05:28.259Z,99709.66
2022-12-08T13:08:00.307Z,99710.53
2022-12-08T13:10:32.477Z,99715.34
2022-12-08T13:13:08.183Z,99717.06
2022-12-08T13:15:39.179Z,99721.81
2022-12-08T13:18:08.913Z,99734.97
2022-12-08T13:20:48.266Z,99742.06
2022-12-08T13:23:45.809Z,99736.34
2022-12-08T13:26:18.562Z,99734.97
2022-12-08T13:29:15.791Z,99732.63
2022-12-08T13:31:50.555Z,99731.53
2022-12-08T13:34:24.464Z,99734.88
2022-12-08T13:37:03.654Z,99741.41
2022-12-08T13:39:43.142Z,99730.56
2022-12-08T13:42:21.596Z,99737.13
2022-12-08T13:48:20.430Z,99736.63
2022-12-08T13:57:02.689Z,99727.16
2022-12-08T13:59:30.549Z,99728.19
2022-12-08T14:02:02.574Z,99724.00
2022-12-08T14:04:47.969Z,99726.91
2022-12-08T14:07:20.241Z,99731.22
2022-12-08T14:09:55.530Z,99734.72
2022-12-08T14:12:26.436Z,99725.97
2022-12-08T14:15:03.686Z,99721.25
2022-12-08T14:17:33.556Z,99726.78
2022-12-08T14:20:04.054Z,99719.59
2022-12-08T14:22:37.364Z,99728.66
2022-12-08T14:25:12.408Z,99721.88
2022-12-08T14:27:41.481Z,99728.50
2022-12-08T14:30:20.555Z,99717.63
2022-12-08T14:32:51.497Z,99718.88
2022-12-08T14:35:23.604Z,99721.94
2022-12-08T14:37:56.254Z,99729.72
2022-12-08T14:40:35.074Z,99723.53
2022-12-08T14:43:17.047Z,99728.50
2022-12-08T14:45:53.575Z,99739.16
2022-12-08T14:48:25.484Z,99726.28
2022-12-08T14:51:05.437Z,99738.53
2022-12-08T14:53:40.452Z,99737.75
2022-12-08T14:56:20.157Z,99744.47
2022-12-08T14:58:50.539Z,99747.06
2022-12-08T15:01:23.811Z,99748.47
2022-12-08T15:03:52.468Z,99750.38
2022-12-08T15:06:23.592Z,99745.22
2022-12-08T15:08:55.969Z,99750.59
2022-12-08T15:11:43.835Z,99747.63
2022-12-08T15:14:31.799Z,99755.13
2022-12-08T15:17:01.743Z,99764.66
2022-12-08T15:19:32.286Z,99760.03
2022-12-08T15:22:13.443Z,99764.69
2022-12-08T15:24:41.992Z,99773.81
2022-12-08T15:27:17.769Z,99774.03
2022-12-08T15:29:47.642Z,99762.59
2022-12-08T15:32:19.622Z,99760.50
2022-12-08T15:34:48.299Z,99772.81
2022-12-08T15:37:25.842Z,99778.81
2022-12-08T15:39:55.167Z,99785.19
2022-12-08T15:42:25.042Z,99789.63
2022-12-08T15:45:13.042Z,99785.66
2022-12-08T15:47:48.995Z,99789.41
2022-12-08T15:50:20.061Z,99795.88
2022-12-08T15:52:51.762Z,99799.69
2022-12-08T15:55:22.071Z,99795.91
2022-12-08T16:00:52.656Z,99803.38
2022-12-08T16:09:12.799Z,99805.69
2022-12-08T16:12:08.246Z,99799.41
2022-12-08T16:17:33.237Z,99795.59
2022-12-08T16:20:02.715Z,99792.09
2022-12-08T16:25:23.911Z,99797.66
2022-12-08T16:28:02.948Z,99797.38
2022-12-08T16:30:35.280Z,99795.72
2022-12-08T16:33:03.871Z,99799.41
2022-12-08T16:35:33.709Z,99801.06
2022-12-08T16:38:02.838Z,99791.28
2022-12-08T16:40:32.424Z,99794.69
2022-12-08T16:43:01.600Z,99799.28
2022-12-08T16:45:32.289Z,99788.19
2022-12-08T16:48:03.184Z,99799.00
2022-12-08T16:50:34.220Z,99795.38
2022-12-08T16:53:07.007Z,99800.88
2022-12-08T16:55:37.004Z,99791.81
2022-12-08T16:58:07.960Z,99795.44
2022-12-08T17:00:37.463Z,99793.75
2022-12-08T17:03:09.274Z,99793.03
2022-12-08T17:05:56.766Z,99788.31
2022-12-08T17:08:25.679Z,99786.34
2022-12-08T17:11:07.472Z,99799.59
2022-12-08T17:13:36.400Z,99801.97
2022-12-08T17:16:13.778Z,99789.63
2022-12-08T17:18:43.851Z,99794.00
2022-12-08T17:21:20.320Z,99791.53
2022-12-08T17:23:58.464Z,99797.19
2022-12-08T17:26:27.322Z,99801.66
2022-12-08T17:29:00.989Z,99800.81
2022-12-08T17:31:36.381Z,99798.38
2022-12-08T17:34:34.606Z,99793.00
2022-12-08T17:37:06.392Z,99801.28
2022-12-08T17:39:41.150Z,99788.84
2022-12-08T17:42:26.040Z,99796.38
2022-12-08T17:44:57.718Z,99793.13
2022-12-08T17:47:26.714Z,99796.50
2022-12-08T17:49:57.031Z,99799.44
2022-12-08T17:52:25.532Z,99812.59
2022-12-08T17:54:54.075Z,99810.63
2022-12-08T17:57:22.604Z,99820.38
2022-12-08T17:59:50.865Z,99818.56
2022-12-08T18:02:19.612Z,99795.69
2022-12-08T18:04:51.155Z,99808.38
2022-12-08T18:07:21.230Z,99810.56
2022-12-08T18:09:51.716Z,99807.47
2022-12-08T18:12:23.648Z,99818.22
2022-12-08T18:14:58.469Z,99819.88
2022-12-08T18:17:27.096Z,99815.19
2022-12-08T18:19:55.571Z,99810.19
2022-12-08T18:22:25.213Z,99819.00
2022-12-08T18:24:55.667Z,99827.88
2022-12-08T18:27:24.463Z,99833.03
2022-12-08T18:29:53.087Z,99824.59
2022-12-08T18:32:23.875Z,99824.78
2022-12-08T18:34:52.787Z,99826.50
2022-12-08T18:37:21.254Z,99827.69
2022-12-08T18:39:51.678Z,99832.81
2022-12-08T18:42:28.352Z,99834.38
2022-12-08T18:45:01.746Z,99841.59
2022-12-08T18:47:33.597Z,99849.50
2022-12-08T18:50:02.167Z,99833.34
2022-12-08T18:52:32.476Z,99833.47
2022-12-08T18:55:07.089Z,99846.47
2022-12-08T18:57:36.310Z,99844.50
2022-12-08T19:00:10.276Z,99834.88
2022-12-08T19:02:42.628Z,99854.44
2022-12-08T19:05:15.409Z,99855.16
2022-12-08T19:07:47.502Z,99854.34
2022-12-08T19:10:17.426Z,99841.63
2022-12-08T19:12:51.110Z,99856.63
2022-12-08T19:15:20.239Z,99846.53
2022-12-08T19:17:48.832Z,99840.38
2022-12-08T19:20:17.896Z,99830.19
2022-12-08T19:22:46.351Z,99844.66
2022-12-08T19:25:17.200Z,99851.72
2022-12-08T19:27:47.479Z,99845.72
2022-12-08T19:30:22.325Z,99853.66
2022-12-08T19:32:54.114Z,99849.63
2022-12-08T19:35:22.625Z,99855.00
2022-12-08T19:37:51.686Z,99854.25
2022-12-08T19:40:40.303Z,99852.66
2022-12-08T19:43:42.803Z,99841.47
2022-12-08T19:46:11.793Z,99846.75
2022-12-08T19:48:40.392Z,99852.94
2022-12-08T19:51:08.653Z,99852.94
2022-12-08T19:53:37.207Z,99861.97
2022-12-08T19:56:06.107Z,99858.50
2022-12-08T19:58:36.011Z,99860.78
2022-12-08T20:01:04.633Z,99864.69
2022-12-08T20:03:32.852Z,99864.97
2022-12-08T20:06:01.361Z,99867.97
2022-12-08T20:08:33.951Z,99861.72
2022-12-08T20:11:07.390Z,99870.28
2022-12-08T20:13:45.925Z,99870.72
2022-12-08T20:16:16.108Z,99874.34
2022-12-08T20:18:49.699Z,99853.38
2022-12-08T20:21:19.528Z,99857.22
2022-12-08T20:24:03.309Z,99840.19
2022-12-08T20:26:31.923Z,99862.19
2022-12-08T20:29:02.082Z,99868.72
2022-12-08T20:31:32.111Z,99867.69
2022-12-08T20:34:28.246Z,99861.09
2022-12-08T20:36:59.247Z,99861.38
2022-12-08T20:39:27.765Z,99848.59
2022-12-08T20:41:56.880Z,99863.88
2022-12-08T20:44:27.077Z,99871.34
2022-12-08T20:46:58.926Z,99862.84
2022-12-08T20:49:32.889Z,99870.38
2022-12-08T20:52:03.539Z,99864.09
2022-12-08T20:54:32.161Z,99859.81
2022-12-08T20:57:03.546Z,99877.50
2022-12-08T20:59:33.991Z,99879.19
2022-12-08T21:02:03.534Z,99882.00
2022-12-08T21:04:32.435Z,99883.69
2022-12-08T21:07:01.302Z,99876.78
2022-12-08T21:09:29.951Z,99864.75
2022-12-08T21:11:58.888Z,99860.25
2022-12-08T21:14:27.353Z,99865.13
2022-12-08T21:16:57.284Z,99867.38
2022-12-08T21:19:26.096Z,99869.09
2022-12-08T21:21:54.470Z,99866.06
2022-12-08T21:24:22.838Z,99861.09
2022-12-08T21:26:51.356Z,99868.50
2022-12-08T21:29:20.296Z,99856.75
2022-12-08T21:31:48.853Z,99863.66
2022-12-08T21:34:18.911Z,99878.31
2022-12-08T21:36:47.562Z,99864.97
2022-12-08T21:39:16.191Z,99874.31
2022-12-08T21:42:04.941Z,99878.50
2022-12-08T21:44:35.676Z,99874.16
2022-12-08T21:47:04.496Z,99873.53
2022-12-08T21:49:36.022Z,99858.75
2022-12-08T21:52:04.931Z,99860.25
2022-12-08T21:54:33.420Z,99853.19
2022-12-08T21:57:01.767Z,99862.69
2022-12-08T21:59:29.971Z,99861.94
2022-12-08T22:01:58.729Z,99856.47
2022-12-08T22:04:27.499Z,99859.56
2022-12-08T22:06:57.503Z,99874.81
2022-12-08T22:09:26.579Z,99868.69
2022-12-08T22:11:55.207Z,99867.56
2022-12-08T22:14:23.733Z,99864.66
2022-12-08T22:16:52.011Z,99870.53
2022-12-08T22:19:21.595Z,99861.06
2022-12-08T22:21:50.655Z,99864.94
2022-12-08T22:24:20.609Z,99865.94
2022-12-08T22:26:49.129Z,99869.63
2022-12-08T22:29:17.622Z,99863.94
2022-12-08T22:31:45.935Z,99867.44
2022-12-08T22:34:18.140Z,99869.66
2022-12-08T22:36:46.629Z,99872.53
2022-12-08T22:39:15.035Z,99885.44
2022-12-08T22:41:44.779Z,99879.31
2022-12-08T22:44:15.357Z,99874.91
2022-12-08T22:46:44.081Z,99883.13
2022-12-08T22:49:12.666Z,99888.22
2022-12-08T22:51:40.851Z,99892.34
2022-12-08T22:54:11.592Z,99901.44
2022-12-08T22:56:40.467Z,99898.09
2022-12-08T22:59:10.247Z,99901.16
2022-12-08T23:01:38.820Z,99897.16
2022-12-08T23:04:10.309Z,99889.41
2022-12-08T23:06:42.827Z,99889.84
2022-12-08T23:09:11.269Z,99900.28
2022-12-08T23:11:39.851Z,99902.13
2022-12-08T23:14:08.232Z,99886.50
2022-12-08T23:16:38.488Z,99897.06
2022-12-08T23:19:07.215Z,99892.25
2022-12-08T23:21:35.771Z,99897.25
2022-12-08T23:24:05.273Z,99901.06
2022-12-08T23:26:35.466Z,99894.91
2022-12-08T23:29:04.609Z,99888.56
2022-12-08T23:31:33.448Z,99895.44
2022-12-08T23:34:03.563Z,99883.75
2022-12-08T23:36:32.126Z,99883.53
2022-12-08T23:39:00.296Z,99881.25
2022-12-08T23:41:28.747Z,99881.78
2022-12-08T23:43:57.160Z,99877.03
2022-12-08T23:46:25.737Z,99884.16
2022-12-08T23:48:54.437Z,99885.84
2022-12-08T23:51:24.361Z,99887.06
2022-12-08T23:53:53.144Z,99901.53
2022-12-08T23:56:24.370Z,99901.44
2022-12-08T23:58:55.513Z,99896.09
